JBU1281 KJFK-KBOS
Flight info
| Callsign | JBU1281 |
|---|---|
| Flight time | N/A |
| Altitude | 21000 |
| Route | CRI CRI MERIT ROBUCK3 |
| Aircraft | A320/M-SDE3FGHIRWY/LB1 |
Departure
| Time | 2026-05-08 20:36 |
|---|---|
| Airport | John F. Kennedy International Airport (KJFK) |
Arrival
| Time | N/A |
|---|---|
| Airport | Boston Logan International Airport (KBOS) |
| Time | Latitude | Longitude | Altitude | Speed | Heading |
|---|---|---|---|---|---|
| 2026-05-08 19:52 | 40.64541 | -73.77289 | 21 ft | 0 kts | 1° |
| 2026-05-08 20:12 | 40.64540 | -73.77289 | 21 ft | 2 kts | 1° |
| 2026-05-08 20:12 | 40.64523 | -73.77289 | 39 ft | 2 kts | 1° |
| 2026-05-08 20:12 | 40.64506 | -73.77290 | 19 ft | 2 kts | 1° |
| 2026-05-08 20:12 | 40.64499 | -73.77290 | 22 ft | 0 kts | 1° |
| 2026-05-08 20:14 | 40.64500 | -73.77290 | 22 ft | 1 kts | 2° |
| 2026-05-08 20:14 | 40.64502 | -73.77288 | 22 ft | 0 kts | 15° |
| 2026-05-08 20:15 | 40.64505 | -73.77284 | 19 ft | 0 kts | 43° |
| 2026-05-08 20:15 | 40.64505 | -73.77281 | 19 ft | 0 kts | 69° |
| 2026-05-08 20:15 | 40.64503 | -73.77278 | 20 ft | 0 kts | 97° |
| 2026-05-08 20:15 | 40.64500 | -73.77275 | 23 ft | 2 kts | 129° |
| 2026-05-08 20:16 | 40.64460 | -73.77215 | 21 ft | 13 kts | 130° |
| 2026-05-08 20:16 | 40.64406 | -73.77154 | 21 ft | 9 kts | 161° |
| 2026-05-08 20:16 | 40.64317 | -73.77194 | 21 ft | 16 kts | 210° |
| 2026-05-08 20:16 | 40.64210 | -73.77279 | 21 ft | 20 kts | 210° |
| 2026-05-08 20:17 | 40.64097 | -73.77379 | 21 ft | 17 kts | 231° |
| 2026-05-08 20:17 | 40.64118 | -73.77498 | 21 ft | 15 kts | 324° |
| 2026-05-08 20:17 | 40.64129 | -73.77547 | 21 ft | 5 kts | 212° |
| 2026-05-08 20:17 | 40.64090 | -73.77569 | 21 ft | 4 kts | 168° |
| 2026-05-08 20:18 | 40.64087 | -73.77566 | 21 ft | 0 kts | 150° |
| 2026-05-08 20:26 | 40.64086 | -73.77564 | 21 ft | 1 kts | 143° |
| 2026-05-08 20:27 | 40.64086 | -73.77563 | 21 ft | 0 kts | 136° |
| 2026-05-08 20:27 | 40.64085 | -73.77561 | 21 ft | 2 kts | 131° |
| 2026-05-08 20:27 | 40.64087 | -73.77541 | 23 ft | 3 kts | 76° |
| 2026-05-08 20:27 | 40.64087 | -73.77538 | 22 ft | 0 kts | 76° |
| 2026-05-08 20:28 | 40.64090 | -73.77523 | 21 ft | 5 kts | 76° |
| 2026-05-08 20:28 | 40.64092 | -73.77508 | 21 ft | 0 kts | 78° |
| 2026-05-08 20:28 | 40.64093 | -73.77502 | 22 ft | 3 kts | 78° |
| 2026-05-08 20:29 | 40.64095 | -73.77481 | 21 ft | 0 kts | 95° |
| 2026-05-08 20:29 | 40.64095 | -73.77480 | 21 ft | 0 kts | 96° |
| 2026-05-08 20:31 | 40.64094 | -73.77474 | 22 ft | 3 kts | 98° |
| 2026-05-08 20:31 | 40.64083 | -73.77424 | 22 ft | 8 kts | 118° |
| 2026-05-08 20:31 | 40.64019 | -73.77427 | 21 ft | 12 kts | 208° |
| 2026-05-08 20:31 | 40.63928 | -73.77497 | 22 ft | 18 kts | 210° |
| 2026-05-08 20:32 | 40.63803 | -73.77597 | 20 ft | 24 kts | 210° |
| 2026-05-08 20:32 | 40.63646 | -73.77719 | 21 ft | 29 kts | 211° |
| 2026-05-08 20:32 | 40.63488 | -73.77844 | 21 ft | 20 kts | 211° |
| 2026-05-08 20:32 | 40.63409 | -73.77929 | 21 ft | 12 kts | 233° |
| 2026-05-08 20:33 | 40.63409 | -73.78043 | 23 ft | 13 kts | 291° |
| 2026-05-08 20:33 | 40.63443 | -73.78162 | 21 ft | 16 kts | 265° |
| 2026-05-08 20:33 | 40.63391 | -73.78218 | 22 ft | 5 kts | 212° |
| 2026-05-08 20:33 | 40.63390 | -73.78219 | 22 ft | 0 kts | 212° |
| 2026-05-08 20:34 | 40.63352 | -73.78255 | 23 ft | 12 kts | 221° |
| 2026-05-08 20:35 | 40.63335 | -73.78359 | 22 ft | 12 kts | 308° |
| 2026-05-08 20:35 | 40.63398 | -73.78496 | 21 ft | 36 kts | 301° |
| 2026-05-08 20:35 | 40.63692 | -73.79146 | 22 ft | 123 kts | 301° |
| 2026-05-08 20:35 | 40.64234 | -73.80262 | 441 ft | 154 kts | 301° |
| 2026-05-08 20:36 | 40.64674 | -73.81543 | 1539 ft | 151 kts | 282° |
| 2026-05-08 20:36 | 40.64784 | -73.82867 | 2664 ft | 139 kts | 268° |
| 2026-05-08 20:36 | 40.64665 | -73.83927 | 3663 ft | 126 kts | 257° |
| 2026-05-08 20:36 | 40.64411 | -73.84821 | 4636 ft | 111 kts | 249° |
| 2026-05-08 20:37 | 40.63967 | -73.85752 | 5172 ft | 133 kts | 236° |
| 2026-05-08 20:37 | 40.63266 | -73.86712 | 5704 ft | 158 kts | 231° |
| 2026-05-08 20:37 | 40.62440 | -73.87816 | 6248 ft | 181 kts | 229° |
| 2026-05-08 20:37 | 40.61248 | -73.88700 | 6776 ft | 218 kts | 199° |
| 2026-05-08 20:38 | 40.59583 | -73.88633 | 6989 ft | 267 kts | 171° |
| 2026-05-08 20:38 | 40.57881 | -73.87415 | 7008 ft | 291 kts | 142° |
| 2026-05-08 20:38 | 40.56692 | -73.85226 | 7007 ft | 301 kts | 114° |
| 2026-05-08 20:38 | 40.56322 | -73.82525 | 7007 ft | 304 kts | 86° |
| 2026-05-08 20:39 | 40.56619 | -73.79769 | 7008 ft | 304 kts | 78° |
| 2026-05-08 20:39 | 40.57037 | -73.77043 | 7008 ft | 304 kts | 74° |
| 2026-05-08 20:39 | 40.57927 | -73.74557 | 7015 ft | 299 kts | 51° |
| 2026-05-08 20:39 | 40.59184 | -73.72378 | 7009 ft | 298 kts | 47° |
| 2026-05-08 20:40 | 40.60472 | -73.70240 | 7014 ft | 299 kts | 47° |
| 2026-05-08 20:40 | 40.61780 | -73.68079 | 7810 ft | 302 kts | 47° |
| 2026-05-08 20:40 | 40.63082 | -73.65900 | 9169 ft | 305 kts | 47° |
| 2026-05-08 20:40 | 40.64400 | -73.63671 | 10279 ft | 312 kts | 45° |
| 2026-05-08 20:41 | 40.65994 | -73.61787 | 10774 ft | 304 kts | 24° |
| 2026-05-08 20:41 | 40.67874 | -73.60531 | 11708 ft | 304 kts | 19° |
| 2026-05-08 20:41 | 40.69800 | -73.59275 | 12932 ft | 306 kts | 19° |
| 2026-05-08 20:41 | 40.71700 | -73.58029 | 14026 ft | 311 kts | 19° |
| 2026-05-08 20:42 | 40.73672 | -73.56733 | 15016 ft | 315 kts | 18° |
| 2026-05-08 20:42 | 40.75620 | -73.55452 | 15993 ft | 319 kts | 18° |
| 2026-05-08 20:42 | 40.77630 | -73.54129 | 16711 ft | 326 kts | 17° |
| 2026-05-08 20:42 | 40.79668 | -73.52784 | 17248 ft | 329 kts | 17° |
| 2026-05-08 20:43 | 40.81726 | -73.51424 | 18276 ft | 332 kts | 17° |
| 2026-05-08 20:43 | 40.83787 | -73.50061 | 19124 ft | 336 kts | 17° |
| 2026-05-08 20:43 | 40.85908 | -73.48656 | 20001 ft | 341 kts | 16° |
| 2026-05-08 20:43 | 40.88076 | -73.47222 | 20681 ft | 347 kts | 16° |
| 2026-05-08 20:44 | 40.90235 | -73.45792 | 20884 ft | 348 kts | 16° |
| 2026-05-08 20:44 | 40.92412 | -73.44351 | 20954 ft | 360 kts | 16° |
| 2026-05-08 20:44 | 40.94745 | -73.42833 | 20957 ft | 389 kts | 17° |
| 2026-05-08 20:44 | 40.97266 | -73.41197 | 20945 ft | 417 kts | 17° |
| 2026-05-08 20:45 | 40.99942 | -73.39450 | 20943 ft | 440 kts | 18° |
| 2026-05-08 20:45 | 41.01782 | -73.38235 | 20941 ft | 452 kts | 18° |
| 2026-05-08 20:45 | 41.05592 | -73.35678 | 20944 ft | 462 kts | 19° |
| 2026-05-08 20:45 | 41.08456 | -73.33731 | 20948 ft | 464 kts | 19° |
| 2026-05-08 20:46 | 41.11325 | -73.31778 | 20950 ft | 464 kts | 19° |
| 2026-05-08 20:46 | 41.14201 | -73.29828 | 20952 ft | 464 kts | 19° |
| 2026-05-08 20:46 | 41.17078 | -73.27892 | 20953 ft | 463 kts | 19° |